createdAt,value
2022-10-11T00:05:48.143Z,12.40
2022-10-11T00:16:13.302Z,12.20
2022-10-11T00:26:34.828Z,11.80
2022-10-11T00:36:57.984Z,11.50
2022-10-11T00:47:21.229Z,11.30
2022-10-11T00:57:49.420Z,11.10
2022-10-11T01:08:11.025Z,10.80
2022-10-11T01:18:39.234Z,10.70
2022-10-11T01:29:11.788Z,10.20
2022-10-11T01:39:39.566Z,10.00
2022-10-11T01:50:02.456Z,9.90
2022-10-11T02:00:31.766Z,9.60
2022-10-11T02:10:59.724Z,9.10
2022-10-11T02:21:24.352Z,8.70
2022-10-11T02:31:46.780Z,8.50
2022-10-11T02:42:15.259Z,8.50
2022-10-11T02:52:36.687Z,8.20
2022-10-11T03:02:59.338Z,8.00
2022-10-11T03:13:20.744Z,7.90
2022-10-11T03:23:43.150Z,7.90
2022-10-11T03:34:04.731Z,7.80
2022-10-11T03:44:27.860Z,7.70
2022-10-11T03:54:49.454Z,7.60
2022-10-11T04:05:12.624Z,7.70
2022-10-11T04:15:34.221Z,7.70
2022-10-11T04:25:56.951Z,7.50
2022-10-11T04:36:18.186Z,7.40
2022-10-11T04:46:40.730Z,7.50
2022-10-11T04:57:02.017Z,7.40
2022-10-11T05:07:24.691Z,7.30
2022-10-11T05:17:45.896Z,7.30
2022-10-11T05:28:08.746Z,7.20
2022-10-11T05:38:30.642Z,7.20
2022-10-11T05:48:53.481Z,7.30
2022-10-11T05:59:15.196Z,7.60
2022-10-11T06:09:37.666Z,7.90
2022-10-11T06:19:59.282Z,8.20
2022-10-11T06:30:21.747Z,8.50
2022-10-11T06:40:43.276Z,9.00
2022-10-11T06:51:06.392Z,9.50
2022-10-11T07:01:28.550Z,9.90
2022-10-11T07:11:51.249Z,10.40
2022-10-11T07:22:12.795Z,10.80
2022-10-11T07:32:35.600Z,10.90
2022-10-11T07:42:58.288Z,11.60
2022-10-11T07:53:21.340Z,11.60
2022-10-11T08:03:43.051Z,12.00
2022-10-11T08:14:08.842Z,12.30
2022-10-11T08:24:33.542Z,12.70
2022-10-11T08:35:00.251Z,12.30
2022-10-11T08:45:29.496Z,13.30
2022-10-11T08:55:53.480Z,13.90
2022-10-11T09:06:27.083Z,14.90
2022-10-11T09:17:00.655Z,14.60
2022-10-11T09:27:43.659Z,15.00
2022-10-11T09:38:19.134Z,15.20
2022-10-11T09:48:42.539Z,14.90
2022-10-11T09:59:19.691Z,16.80
2022-10-11T10:09:41.074Z,16.10
2022-10-11T10:20:05.648Z,15.70
2022-10-11T10:30:29.795Z,16.10
2022-10-11T10:40:59.050Z,16.10
2022-10-11T10:51:35.000Z,15.80
2022-10-11T11:02:21.445Z,16.60
2022-10-11T11:12:50.804Z,16.30
2022-10-11T11:23:23.436Z,16.80
2022-10-11T11:33:54.695Z,16.50
2022-10-11T11:44:27.168Z,15.40
2022-10-11T11:54:53.128Z,16.40
2022-10-11T12:05:18.129Z,16.60
2022-10-11T12:15:39.719Z,15.90
2022-10-11T12:26:32.013Z,16.50
2022-10-11T12:36:53.763Z,15.70
2022-10-11T12:47:35.407Z,15.40
2022-10-11T12:58:41.296Z,15.50
2022-10-11T13:09:08.006Z,15.20
2022-10-11T13:19:30.942Z,15.10
2022-10-11T13:29:56.160Z,15.10
2022-10-11T13:40:21.105Z,16.00
2022-10-11T13:50:46.525Z,15.50
2022-10-11T14:01:20.235Z,15.20
2022-10-11T14:11:43.273Z,15.80
2022-10-11T14:22:05.668Z,15.90
2022-10-11T14:32:31.774Z,15.60
2022-10-11T14:42:53.594Z,15.90
2022-10-11T14:53:16.611Z,15.40
2022-10-11T15:03:37.907Z,15.00
2022-10-11T15:14:06.347Z,15.00
2022-10-11T15:24:29.171Z,15.10
2022-10-11T15:34:52.314Z,15.00
2022-10-11T15:45:17.091Z,14.60
2022-10-11T15:55:44.637Z,14.10
2022-10-11T16:06:09.232Z,13.70
2022-10-11T16:16:32.215Z,13.00
2022-10-11T16:26:53.988Z,12.20
2022-10-11T16:37:22.195Z,11.50
2022-10-11T16:47:53.794Z,11.00
2022-10-11T16:58:16.950Z,10.40
2022-10-11T17:08:51.912Z,10.00
2022-10-11T17:19:16.967Z,9.60
2022-10-11T17:29:41.729Z,9.30
2022-10-11T17:40:06.894Z,9.10
2022-10-11T17:50:28.349Z,8.80
2022-10-11T18:00:51.018Z,8.50
2022-10-11T18:11:14.127Z,8.30
2022-10-11T18:21:40.315Z,8.30
2022-10-11T18:32:01.515Z,8.20
2022-10-11T18:42:26.384Z,7.80
2022-10-11T18:52:48.592Z,7.60
2022-10-11T19:03:11.382Z,7.30
2022-10-11T19:13:33.271Z,7.20
2022-10-11T19:23:59.652Z,7.20
2022-10-11T19:34:21.276Z,7.00
2022-10-11T19:44:43.979Z,6.70
2022-10-11T19:55:05.712Z,6.70
2022-10-11T20:05:31.903Z,6.90
2022-10-11T20:16:05.103Z,6.60
2022-10-11T20:26:32.161Z,6.20
2022-10-11T20:36:53.932Z,6.00
2022-10-11T20:47:23.020Z,6.20
2022-10-11T20:57:52.053Z,6.40
2022-10-11T21:08:16.177Z,6.10
2022-10-11T21:18:37.846Z,5.90
2022-10-11T21:29:00.706Z,5.80
2022-10-11T21:39:22.099Z,5.60
2022-10-11T21:49:45.040Z,5.30
2022-10-11T22:00:10.026Z,5.50
2022-10-11T22:10:36.346Z,5.30
2022-10-11T22:21:04.213Z,5.10
2022-10-11T22:31:27.708Z,5.00
2022-10-11T22:41:48.980Z,5.00
2022-10-11T22:52:11.475Z,5.00
2022-10-11T23:02:32.517Z,4.80
2022-10-11T23:12:55.362Z,5.10
2022-10-11T23:23:17.200Z,4.80
2022-10-11T23:33:40.102Z,4.80
2022-10-11T23:44:01.552Z,4.50
2022-10-11T23:54:24.134Z,4.40
